createdAt,value
2018-12-26T00:02:24.959Z,6.83
2018-12-26T00:05:01.893Z,8.10
2018-12-26T00:07:33.126Z,4.93
2018-12-26T00:10:04.814Z,5.70
2018-12-26T00:12:38.378Z,6.93
2018-12-26T00:15:12.217Z,4.50
2018-12-26T00:17:45.189Z,6.30
2018-12-26T00:20:20.878Z,5.50
2018-12-26T00:22:58.592Z,4.80
2018-12-26T00:25:32.216Z,6.07
2018-12-26T00:28:05.481Z,4.20
2018-12-26T00:30:39.313Z,4.23
2018-12-26T00:33:16.820Z,4.13
2018-12-26T00:35:55.429Z,4.20
2018-12-26T00:38:32.699Z,4.10
2018-12-26T00:41:06.288Z,3.90
2018-12-26T00:43:37.525Z,5.37
2018-12-26T00:46:17.143Z,4.90
2018-12-26T00:48:56.198Z,3.80
2018-12-26T00:51:30.327Z,4.40
2018-12-26T00:54:03.616Z,4.40
2018-12-26T00:56:44.257Z,5.93
2018-12-26T00:59:24.145Z,5.77
2018-12-26T01:01:59.733Z,4.50
2018-12-26T01:04:33.153Z,4.40
2018-12-26T01:07:04.491Z,5.77
2018-12-26T01:09:38.434Z,6.73
2018-12-26T01:12:10.082Z,7.17
2018-12-26T01:14:42.548Z,5.00
2018-12-26T01:17:17.259Z,6.20
2018-12-26T01:19:49.477Z,5.10
2018-12-26T01:22:22.406Z,5.43
2018-12-26T01:24:53.608Z,6.07
2018-12-26T01:27:33.430Z,5.70
2018-12-26T01:30:12.466Z,5.67
2018-12-26T01:32:48.230Z,5.40
2018-12-26T01:35:21.386Z,5.70
2018-12-26T01:37:53.645Z,7.60
2018-12-26T01:40:37.478Z,6.23
2018-12-26T01:43:09.927Z,11.00
2018-12-26T01:45:43.499Z,8.50
2018-12-26T01:48:16.310Z,5.33
2018-12-26T01:50:48.714Z,7.40
2018-12-26T01:53:21.672Z,5.70
2018-12-26T01:55:55.711Z,8.60
2018-12-26T01:58:27.714Z,6.07
2018-12-26T02:01:01.044Z,5.80
2018-12-26T02:03:32.830Z,6.70
2018-12-26T02:06:04.611Z,6.23
2018-12-26T02:08:38.739Z,7.63
2018-12-26T02:11:10.548Z,7.33
2018-12-26T02:13:42.754Z,8.17
2018-12-26T02:16:14.732Z,7.30
2018-12-26T02:18:52.959Z,10.17
2018-12-26T02:21:24.166Z,8.20
2018-12-26T02:24:03.769Z,8.23
2018-12-26T02:26:37.774Z,10.67
2018-12-26T02:29:16.914Z,6.47
2018-12-26T02:31:59.078Z,10.17
2018-12-26T02:34:30.331Z,7.57
2018-12-26T02:37:04.715Z,9.87
2018-12-26T02:39:40.004Z,8.03
2018-12-26T02:42:13.507Z,9.80
2018-12-26T02:44:46.929Z,7.53
2018-12-26T02:47:18.943Z,11.70
2018-12-26T02:49:50.846Z,7.87
2018-12-26T02:52:28.126Z,9.10
2018-12-26T02:55:02.283Z,9.47
2018-12-26T02:57:40.360Z,9.30
2018-12-26T03:00:13.850Z,9.77
2018-12-26T03:02:54.540Z,9.00
2018-12-26T03:05:26.758Z,11.70
2018-12-26T03:07:58.987Z,9.70
2018-12-26T03:10:31.798Z,9.87
2018-12-26T03:13:04.860Z,10.43
2018-12-26T03:15:37.028Z,11.83
2018-12-26T03:18:08.290Z,9.60
2018-12-26T03:20:49.030Z,9.97
2018-12-26T03:23:28.365Z,8.10
2018-12-26T03:26:02.171Z,9.50
2018-12-26T03:28:35.062Z,9.80
2018-12-26T03:31:15.142Z,8.57
2018-12-26T03:33:47.142Z,10.70
2018-12-26T03:36:19.530Z,9.27
2018-12-26T03:39:00.608Z,10.90
2018-12-26T03:41:37.878Z,9.07
2018-12-26T03:44:16.844Z,9.43
2018-12-26T03:46:49.356Z,9.13
2018-12-26T03:49:22.320Z,10.43
2018-12-26T03:51:58.159Z,7.90
2018-12-26T03:54:38.124Z,7.80
2018-12-26T03:57:10.674Z,9.47
2018-12-26T03:59:52.861Z,10.93
2018-12-26T04:02:27.046Z,9.60
2018-12-26T04:04:59.361Z,9.37
2018-12-26T04:07:31.927Z,10.07
2018-12-26T04:10:03.201Z,10.77
2018-12-26T04:12:36.453Z,8.77
2018-12-26T04:15:15.795Z,12.53
2018-12-26T04:17:48.966Z,11.77
2018-12-26T04:20:22.623Z,9.07
2018-12-26T04:22:55.584Z,11.87
2018-12-26T04:25:30.278Z,11.57
2018-12-26T04:28:01.892Z,9.40
2018-12-26T04:30:34.360Z,8.53
2018-12-26T04:33:07.492Z,9.50
2018-12-26T04:35:42.877Z,8.93
2018-12-26T04:38:17.813Z,12.07
2018-12-26T04:40:51.371Z,8.07
2018-12-26T04:43:25.340Z,14.47
2018-12-26T04:45:59.261Z,10.47
2018-12-26T04:48:32.861Z,16.50
2018-12-26T04:51:06.501Z,6.87
2018-12-26T04:53:39.401Z,11.87
2018-12-26T04:56:10.716Z,7.80
2018-12-26T04:58:43.519Z,8.10
2018-12-26T05:01:16.410Z,14.93
2018-12-26T05:03:55.741Z,10.13
2018-12-26T05:06:27.491Z,10.63
2018-12-26T05:09:07.587Z,10.30
2018-12-26T05:11:40.651Z,14.00
2018-12-26T05:14:13.535Z,9.10
2018-12-26T05:16:45.857Z,10.40
2018-12-26T05:19:19.601Z,10.10
2018-12-26T05:21:52.732Z,8.80
2018-12-26T05:24:25.611Z,13.70
2018-12-26T05:26:56.926Z,10.60
2018-12-26T05:29:36.431Z,11.10
2018-12-26T05:32:15.973Z,15.43
2018-12-26T05:34:49.300Z,12.40
2018-12-26T05:37:20.709Z,10.70
2018-12-26T05:39:51.975Z,11.97
2018-12-26T05:42:27.342Z,12.27
2018-12-26T05:44:58.584Z,10.00
2018-12-26T05:47:39.867Z,12.33
2018-12-26T05:50:11.082Z,9.80
2018-12-26T05:52:42.630Z,15.70
2018-12-26T05:55:16.637Z,9.70
2018-12-26T05:57:57.945Z,12.00
2018-12-26T06:00:29.707Z,10.83
2018-12-26T06:03:03.723Z,11.47
2018-12-26T06:05:43.424Z,12.40
2018-12-26T06:08:25.076Z,11.83
2018-12-26T06:10:58.641Z,9.43
2018-12-26T06:13:30.390Z,15.93
2018-12-26T06:16:08.649Z,10.40
2018-12-26T06:18:45.016Z,9.83
2018-12-26T06:21:16.918Z,11.20
2018-12-26T06:23:49.986Z,10.27
2018-12-26T06:26:21.723Z,9.27
2018-12-26T06:29:00.999Z,10.30
2018-12-26T06:31:41.908Z,9.90
2018-12-26T06:34:20.876Z,8.90
2018-12-26T06:37:01.511Z,10.20
2018-12-26T06:39:39.370Z,8.80
2018-12-26T06:42:10.659Z,10.67
2018-12-26T06:44:49.663Z,8.47
2018-12-26T06:47:25.836Z,7.73
2018-12-26T06:49:57.946Z,9.27
2018-12-26T06:52:32.690Z,11.67
2018-12-26T06:55:05.115Z,7.80
2018-12-26T06:57:37.968Z,8.10
2018-12-26T07:00:16.894Z,16.20
2018-12-26T07:02:49.329Z,12.03
2018-12-26T07:05:30.223Z,7.97
2018-12-26T07:08:02.119Z,8.73
2018-12-26T07:10:44.012Z,8.53
2018-12-26T07:13:22.907Z,8.03
2018-12-26T07:15:55.683Z,9.63
2018-12-26T07:18:29.125Z,7.10
2018-12-26T07:21:10.435Z,7.67
2018-12-26T07:23:48.946Z,7.30
2018-12-26T07:26:23.905Z,7.30
2018-12-26T07:28:56.636Z,16.43
2018-12-26T07:31:30.339Z,7.60
2018-12-26T07:34:06.179Z,12.13
2018-12-26T07:36:45.250Z,6.97
2018-12-26T07:39:26.907Z,10.27
2018-12-26T07:42:11.160Z,8.37
2018-12-26T07:44:50.583Z,6.50
2018-12-26T07:47:25.847Z,7.33
2018-12-26T07:50:02.215Z,6.43
2018-12-26T07:52:38.244Z,6.40
2018-12-26T07:55:11.677Z,6.73
2018-12-26T07:57:50.723Z,6.97
2018-12-26T08:00:25.115Z,5.57
2018-12-26T08:03:04.682Z,10.63
2018-12-26T08:05:41.332Z,7.33
2018-12-26T08:08:19.960Z,6.23
2018-12-26T08:10:56.190Z,8.07
2018-12-26T08:13:29.192Z,6.73
2018-12-26T08:16:06.048Z,6.30
2018-12-26T08:18:48.567Z,4.03
2018-12-26T08:21:26.249Z,15.40
2018-12-26T08:24:08.669Z,6.20
2018-12-26T08:26:43.473Z,4.47
2018-12-26T08:29:17.452Z,6.13
2018-12-26T08:31:51.114Z,7.07
2018-12-26T08:34:25.425Z,6.83
2018-12-26T08:37:02.397Z,6.10
2018-12-26T08:39:33.632Z,8.40
2018-12-26T08:42:05.366Z,7.80
2018-12-26T08:44:38.522Z,8.53
2018-12-26T08:47:10.679Z,13.23
2018-12-26T08:49:42.853Z,6.83
2018-12-26T08:52:14.397Z,7.33
2018-12-26T08:54:47.618Z,8.10
2018-12-26T08:57:26.709Z,6.03
2018-12-26T09:00:00.582Z,6.27
2018-12-26T09:02:31.932Z,10.33
2018-12-26T09:05:04.607Z,10.20
2018-12-26T09:07:38.608Z,7.60
2018-12-26T09:10:11.039Z,7.33
2018-12-26T09:12:50.990Z,17.47
2018-12-26T09:15:58.675Z,7.00
2018-12-26T09:18:53.876Z,9.23
2018-12-26T09:21:53.279Z,13.37
2018-12-26T09:24:28.744Z,9.00
2018-12-26T09:27:01.402Z,8.50
2018-12-26T09:29:33.199Z,12.83
2018-12-26T09:32:05.648Z,12.83
2018-12-26T09:34:39.709Z,7.87
2018-12-26T09:37:11.465Z,14.17
2018-12-26T09:39:43.719Z,8.00
2018-12-26T09:42:16.890Z,10.00
2018-12-26T09:44:54.431Z,11.40
2018-12-26T09:47:29.950Z,11.70
2018-12-26T09:50:01.798Z,7.03
2018-12-26T09:52:33.743Z,12.40
2018-12-26T09:55:06.889Z,15.57
2018-12-26T09:57:41.831Z,9.83
2018-12-26T10:00:13.733Z,8.83
2018-12-26T10:02:46.996Z,11.73
2018-12-26T10:05:21.552Z,9.00
2018-12-26T10:07:53.751Z,14.60
2018-12-26T10:10:25.001Z,8.67
2018-12-26T10:12:59.283Z,10.63
2018-12-26T10:15:42.940Z,10.13
2018-12-26T10:18:21.693Z,8.30
2018-12-26T10:21:30.679Z,8.70
2018-12-26T10:24:04.291Z,8.63
2018-12-26T10:26:35.883Z,10.80
2018-12-26T10:29:09.159Z,10.97
2018-12-26T10:31:43.008Z,10.10
2018-12-26T10:34:16.793Z,11.70
2018-12-26T10:36:57.416Z,10.43
2018-12-26T10:39:29.974Z,10.73
2018-12-26T10:42:05.585Z,10.07
2018-12-26T10:44:36.836Z,8.90
2018-12-26T10:47:08.377Z,9.90
2018-12-26T10:49:42.122Z,13.83
2018-12-26T10:52:14.092Z,10.40
2018-12-26T10:54:45.931Z,12.40
2018-12-26T10:57:20.026Z,10.60
2018-12-26T10:59:55.057Z,13.40
2018-12-26T11:02:28.224Z,8.77
2018-12-26T11:05:02.348Z,11.67
2018-12-26T11:07:36.799Z,10.97
2018-12-26T11:10:10.854Z,11.43
2018-12-26T11:12:44.776Z,13.47
2018-12-26T11:15:17.045Z,12.17
2018-12-26T11:17:51.905Z,11.70
2018-12-26T11:20:25.124Z,13.20
2018-12-26T11:22:58.300Z,12.70
2018-12-26T11:25:31.269Z,14.83
2018-12-26T11:28:05.101Z,16.07
2018-12-26T11:30:45.350Z,15.03
2018-12-26T11:33:18.801Z,12.43
2018-12-26T11:35:51.201Z,13.17
2018-12-26T11:38:22.458Z,12.77
2018-12-26T11:40:56.112Z,12.37
2018-12-26T11:43:27.462Z,12.10
2018-12-26T11:46:00.539Z,13.53
2018-12-26T11:48:35.967Z,13.63
2018-12-26T11:51:10.586Z,14.83
2018-12-26T11:53:41.828Z,17.37
2018-12-26T11:56:15.329Z,14.93
2018-12-26T11:58:49.141Z,13.40
2018-12-26T12:01:23.187Z,12.50
2018-12-26T12:03:57.292Z,17.23
2018-12-26T12:06:30.150Z,15.77
2018-12-26T12:09:12.434Z,15.00
2018-12-26T12:12:01.951Z,11.60
2018-12-26T12:14:33.506Z,15.80
2018-12-26T12:17:07.537Z,15.67
2018-12-26T12:19:40.408Z,13.10
2018-12-26T12:22:13.227Z,14.10
2018-12-26T12:24:44.465Z,12.50
2018-12-26T12:27:20.235Z,12.20
2018-12-26T12:29:55.527Z,12.20
2018-12-26T12:32:28.400Z,11.33
2018-12-26T12:35:01.455Z,12.17
2018-12-26T12:37:34.448Z,10.47
2018-12-26T12:40:10.718Z,15.53
2018-12-26T12:42:42.476Z,14.17
2018-12-26T12:45:14.393Z,9.73
2018-12-26T12:51:00.311Z,9.47
2018-12-26T12:53:34.192Z,9.90
2018-12-26T12:56:11.786Z,11.23
2018-12-26T12:58:50.697Z,11.30
2018-12-26T13:01:25.255Z,11.03
2018-12-26T13:03:57.345Z,11.20
2018-12-26T13:06:32.963Z,14.43
2018-12-26T13:09:06.219Z,13.33
2018-12-26T13:11:38.930Z,9.80
2018-12-26T13:14:11.000Z,9.63
2018-12-26T13:16:43.604Z,13.63
2018-12-26T13:19:14.831Z,12.10
2018-12-26T13:21:50.674Z,11.87
2018-12-26T13:24:28.656Z,15.27
2018-12-26T13:27:08.840Z,12.43
2018-12-26T13:29:53.464Z,10.27
2018-12-26T13:32:21.895Z,11.37
2018-12-26T13:34:53.452Z,17.67
2018-12-26T13:37:26.628Z,12.47
2018-12-26T13:39:59.898Z,14.13
2018-12-26T13:42:31.748Z,11.83
2018-12-26T13:45:08.657Z,14.37
2018-12-26T13:47:42.373Z,11.47
2018-12-26T13:50:14.259Z,14.03
2018-12-26T13:52:45.641Z,12.00
2018-12-26T13:55:18.687Z,8.93
2018-12-26T13:57:49.899Z,8.97
2018-12-26T14:00:23.834Z,10.40
2018-12-26T14:02:55.567Z,12.73
2018-12-26T14:05:27.961Z,9.40
2018-12-26T14:08:01.866Z,10.13
2018-12-26T14:10:33.096Z,9.23
2018-12-26T14:13:06.932Z,10.63
2018-12-26T14:15:42.396Z,10.80
2018-12-26T14:18:15.276Z,17.00
2018-12-26T14:20:47.843Z,8.83
2018-12-26T14:23:20.821Z,11.10
2018-12-26T14:25:53.024Z,9.17
2018-12-26T14:28:27.072Z,9.83
2018-12-26T14:31:01.650Z,9.87
2018-12-26T14:33:34.161Z,12.93
2018-12-26T14:36:06.921Z,17.30
2018-12-26T14:38:40.842Z,8.90
2018-12-26T14:41:14.034Z,13.87
2018-12-26T14:43:49.734Z,9.63
2018-12-26T14:46:23.640Z,12.27
2018-12-26T14:48:56.843Z,15.63
2018-12-26T14:51:29.026Z,19.90
2018-12-26T14:54:03.486Z,16.20
2018-12-26T14:56:37.148Z,13.20
2018-12-26T14:59:10.156Z,8.73
2018-12-26T15:01:51.559Z,8.93
2018-12-26T15:04:23.899Z,10.63
2018-12-26T15:06:57.222Z,10.53
2018-12-26T15:09:29.215Z,11.73
2018-12-26T15:12:13.646Z,10.10
2018-12-26T15:14:52.062Z,11.63
2018-12-26T15:17:24.150Z,11.70
2018-12-26T15:20:05.563Z,12.73
2018-12-26T15:22:38.470Z,8.67
2018-12-26T15:25:11.168Z,10.77
2018-12-26T15:27:46.716Z,7.93
2018-12-26T15:30:28.572Z,10.30
2018-12-26T15:32:56.211Z,8.50
2018-12-26T15:35:27.447Z,9.40
2018-12-26T15:38:00.191Z,8.63
2018-12-26T15:40:34.167Z,11.20
2018-12-26T15:43:07.234Z,10.83
2018-12-26T15:45:46.950Z,24.37
2018-12-26T15:48:18.464Z,19.47
2018-12-26T15:50:58.552Z,22.40
2018-12-26T15:53:31.414Z,36.93
2018-12-26T15:56:05.439Z,31.90
2018-12-26T15:58:44.378Z,17.87
2018-12-26T16:01:18.427Z,13.00
2018-12-26T16:03:55.628Z,12.00
2018-12-26T16:06:29.382Z,10.77
2018-12-26T16:09:02.594Z,13.30
2018-12-26T16:11:45.317Z,13.53
2018-12-26T16:14:17.483Z,8.03
2018-12-26T16:16:50.415Z,7.10
2018-12-26T16:19:29.296Z,11.50
2018-12-26T16:22:10.222Z,8.43
2018-12-26T16:24:41.457Z,9.53
2018-12-26T16:27:15.476Z,10.10
2018-12-26T16:29:49.230Z,7.80
2018-12-26T16:32:29.111Z,8.50
2018-12-26T16:35:03.258Z,12.03
2018-12-26T16:37:35.488Z,9.27
2018-12-26T16:40:09.623Z,11.03
2018-12-26T16:42:49.742Z,9.33
2018-12-26T16:45:22.588Z,8.30
2018-12-26T16:48:05.765Z,12.53
2018-12-26T16:50:50.798Z,10.73
2018-12-26T16:53:47.035Z,10.63
2018-12-26T16:56:24.820Z,22.00
2018-12-26T16:59:07.332Z,14.87
2018-12-26T17:01:38.557Z,13.97
2018-12-26T17:04:11.218Z,13.50
2018-12-26T17:06:43.535Z,14.30
2018-12-26T17:09:15.686Z,13.97
2018-12-26T17:11:49.568Z,10.40
2018-12-26T17:14:23.567Z,12.90
2018-12-26T17:17:00.870Z,12.17
2018-12-26T17:19:43.840Z,12.03
2018-12-26T17:22:23.349Z,11.63
2018-12-26T17:24:55.608Z,12.87
2018-12-26T17:27:28.167Z,11.33
2018-12-26T17:30:01.758Z,10.30
2018-12-26T17:32:37.215Z,10.37
2018-12-26T17:35:09.773Z,14.90
2018-12-26T17:37:43.852Z,11.07
2018-12-26T17:40:23.057Z,15.97
2018-12-26T17:43:02.219Z,9.57
2018-12-26T17:45:33.451Z,21.03
2018-12-26T17:48:17.101Z,10.97
2018-12-26T17:50:56.778Z,12.07
2018-12-26T17:54:02.169Z,10.83
2018-12-26T17:57:01.499Z,12.10
2018-12-26T17:59:52.108Z,14.77
2018-12-26T18:06:14.135Z,10.83
2018-12-26T18:08:47.774Z,10.20
2018-12-26T18:11:28.295Z,9.97
2018-12-26T18:14:07.120Z,11.40
2018-12-26T18:16:40.779Z,9.63
2018-12-26T18:19:11.995Z,12.00
2018-12-26T18:21:44.816Z,24.67
2018-12-26T18:24:23.050Z,20.93
2018-12-26T18:27:04.440Z,14.00
2018-12-26T18:29:43.008Z,13.60
2018-12-26T18:32:14.506Z,12.43
2018-12-26T18:34:52.358Z,13.33
2018-12-26T18:37:23.996Z,11.30
2018-12-26T18:39:58.011Z,10.53
2018-12-26T18:42:33.764Z,12.43
2018-12-26T18:45:06.797Z,12.23
2018-12-26T18:47:40.752Z,16.97
2018-12-26T18:50:19.365Z,13.00
2018-12-26T18:53:00.816Z,15.33
2018-12-26T18:55:34.092Z,15.37
2018-12-26T18:58:08.075Z,11.13
2018-12-26T19:00:39.295Z,10.93
2018-12-26T19:03:14.186Z,12.13
2018-12-26T19:05:47.037Z,14.47
2018-12-26T19:08:26.119Z,12.50
2018-12-26T19:11:09.285Z,10.20
2018-12-26T19:13:48.944Z,11.30
2018-12-26T19:16:29.952Z,16.00
2018-12-26T19:19:08.189Z,17.80
2018-12-26T19:21:49.711Z,15.73
2018-12-26T19:24:23.590Z,14.77
2018-12-26T19:26:55.118Z,15.20
2018-12-26T19:29:29.129Z,12.33
2018-12-26T19:32:03.207Z,13.37
2018-12-26T19:34:36.053Z,18.30
2018-12-26T19:37:08.310Z,14.07
2018-12-26T19:39:42.326Z,13.40
2018-12-26T19:42:16.893Z,17.93
2018-12-26T19:44:49.337Z,17.90
2018-12-26T19:47:30.240Z,17.60
2018-12-26T19:50:08.793Z,14.20
2018-12-26T19:52:49.244Z,13.93
2018-12-26T19:55:30.397Z,13.67
2018-12-26T19:58:01.646Z,15.20
2018-12-26T20:00:34.272Z,15.17
2018-12-26T20:03:08.332Z,17.70
2018-12-26T20:05:42.829Z,22.10
2018-12-26T20:08:15.736Z,16.97
2018-12-26T20:10:56.954Z,15.83
2018-12-26T20:13:36.430Z,17.17
2018-12-26T20:16:19.097Z,16.87
2018-12-26T20:18:50.392Z,19.33
2018-12-26T20:21:25.934Z,19.37
2018-12-26T20:23:57.435Z,17.13
2018-12-26T20:26:39.233Z,16.53
2018-12-26T20:29:10.624Z,18.57
2018-12-26T20:31:42.638Z,20.60
2018-12-26T20:34:20.966Z,19.33
2018-12-26T20:36:54.672Z,22.83
2018-12-26T20:39:27.252Z,17.03
2018-12-26T20:41:59.611Z,17.90
2018-12-26T20:44:32.987Z,19.47
2018-12-26T20:47:07.455Z,19.83
2018-12-26T20:49:43.644Z,20.77
2018-12-26T20:52:14.881Z,22.90
2018-12-26T20:54:53.209Z,23.90
2018-12-26T20:57:32.412Z,22.17
2018-12-26T21:00:12.024Z,23.27
2018-12-26T21:02:49.356Z,20.30
2018-12-26T21:05:22.662Z,18.17
2018-12-26T21:07:56.630Z,24.43
2018-12-26T21:10:33.938Z,19.87
2018-12-26T21:13:16.834Z,19.87
2018-12-26T21:15:49.682Z,18.63
2018-12-26T21:18:22.981Z,22.60
2018-12-26T21:21:05.836Z,28.37
2018-12-26T21:23:41.351Z,65.60
2018-12-26T21:26:14.788Z,44.30
2018-12-26T21:28:53.824Z,31.93
2018-12-26T21:31:25.647Z,33.30
2018-12-26T21:33:56.938Z,26.70
2018-12-26T21:36:28.923Z,20.80
2018-12-26T21:39:00.638Z,19.10
2018-12-26T21:41:33.495Z,16.83
2018-12-26T21:44:05.475Z,21.87
2018-12-26T21:50:34.839Z,20.93
2018-12-26T21:53:17.830Z,20.33
2018-12-26T21:55:58.057Z,19.37
2018-12-26T21:58:31.695Z,17.40
2018-12-26T22:01:03.888Z,18.20
2018-12-26T22:03:45.391Z,17.70
2018-12-26T22:06:23.118Z,16.23
2018-12-26T22:09:00.075Z,19.07
2018-12-26T22:11:31.913Z,20.03
2018-12-26T22:14:04.912Z,19.73
2018-12-26T22:16:38.894Z,15.53
2018-12-26T22:19:21.095Z,19.23
2018-12-26T22:22:03.067Z,19.33
2018-12-26T22:24:42.961Z,18.67
2018-12-26T22:27:15.049Z,19.90
2018-12-26T22:29:55.180Z,22.10
2018-12-26T22:32:30.787Z,22.17
2018-12-26T22:35:10.063Z,22.20
2018-12-26T22:37:48.371Z,24.67
2018-12-26T22:40:27.055Z,21.87
2018-12-26T22:43:36.475Z,21.63
2018-12-26T22:46:09.700Z,21.97
2018-12-26T22:48:43.064Z,25.20
2018-12-26T22:51:16.118Z,26.97
2018-12-26T22:53:58.252Z,25.50
2018-12-26T22:56:31.824Z,33.53
2018-12-26T22:59:10.054Z,32.23
2018-12-26T23:01:41.286Z,27.20
2018-12-26T23:04:23.654Z,22.23
2018-12-26T23:06:55.041Z,24.17
2018-12-26T23:09:28.374Z,21.37
2018-12-26T23:11:59.660Z,23.80
2018-12-26T23:14:33.218Z,20.53
2018-12-26T23:17:07.195Z,24.83
2018-12-26T23:19:41.106Z,25.20
2018-12-26T23:22:12.351Z,18.60
2018-12-26T23:24:45.973Z,22.03
2018-12-26T23:27:18.490Z,18.83
2018-12-26T23:29:53.389Z,19.57
2018-12-26T23:32:26.196Z,20.43
2018-12-26T23:34:59.433Z,19.13
2018-12-26T23:37:37.497Z,15.40
2018-12-26T23:40:09.191Z,14.70
2018-12-26T23:42:42.388Z,21.63
2018-12-26T23:45:15.376Z,13.80
2018-12-26T23:47:47.448Z,15.80
2018-12-26T23:50:21.369Z,15.90
2018-12-26T23:52:54.453Z,18.93
2018-12-26T23:55:34.152Z,18.60
2018-12-26T23:58:16.787Z,19.13
